Time;durP1;ratioP1;P1;durP2;ratioP2;P2;SDS_P1;SDS_P2;PMS_P1;PMS_P2;Temp;Humidity;BMP_temperature;BMP_pressure;BME280_temperature;BME280_humidity;BME280_pressure;Samples;Min_cycle;Max_cycle;Signal;HPM_P1;HPM_P2
2023/01/17 00:02:12;;;;;;;2.47;0.65;;;4.00;99.90;;;;;;5113602;27;20088;-67
2023/01/17 00:10:11;;;;;;;6.88;0.55;;;4.20;99.90;;;;;;5110540;27;20051;-67
2023/01/17 00:12:36;;;;;;;3.65;0.70;;;4.20;99.90;;;;;;5112540;27;20039;-68
2023/01/17 00:15:02;;;;;;;4.18;0.70;;;4.10;99.90;;;;;;5114754;27;20046;-72
2023/01/17 00:17:29;;;;;;;2.38;0.63;;;4.10;99.90;;;;;;5105685;27;20031;-69
2023/01/17 00:26:01;;;;;;;0.75;0.50;;;4.00;99.90;;;;;;5108469;27;20130;-70
2023/01/17 01:35:21;;;;;;;1.88;0.40;;;3.20;99.90;;;;;;5110752;27;20075;-68
2023/01/17 01:37:47;;;;;;;1.23;0.40;;;3.20;99.90;;;;;;5107975;27;20386;-72
2023/01/17 01:40:14;;;;;;;0.43;0.22;;;3.00;99.90;;;;;;5110305;27;20031;-68
2023/01/17 01:42:51;;;;;;;2.83;0.50;;;2.90;99.90;;;;;;5111813;27;20042;-67
2023/01/17 01:45:37;;;;;;;2.20;0.47;;;2.90;99.90;;;;;;5110297;27;20389;-70
2023/01/17 01:48:27;;;;;;;0.85;0.32;;;2.80;99.90;;;;;;5104786;27;20051;-67
2023/01/17 01:50:53;;;;;;;2.15;0.60;;;2.80;99.90;;;;;;5099180;27;20035;-66
2023/01/17 01:53:20;;;;;;;2.40;0.57;;;2.60;99.90;;;;;;5102549;27;20092;-69
2023/01/17 01:55:48;;;;;;;5.15;0.32;;;2.40;99.90;;;;;;5116057;27;20039;-69
2023/01/17 01:58:24;;;;;;;3.97;0.45;;;2.40;99.90;;;;;;5116521;27;20505;-70
2023/01/17 02:00:50;;;;;;;0.90;0.30;;;2.40;99.90;;;;;;5109741;27;20064;-67
2023/01/17 02:03:32;;;;;;;2.08;0.30;;;2.30;99.90;;;;;;5102627;28;20031;-67
2023/01/17 02:06:05;;;;;;;4.00;0.60;;;2.30;99.90;;;;;;5101874;27;20050;-66
2023/01/17 02:08:32;;;;;;;1.10;0.40;;;2.30;99.90;;;;;;5113644;27;20035;-68
2023/01/17 02:10:57;;;;;;;1.83;0.38;;;2.30;99.90;;;;;;5115159;27;20546;-66
2023/01/17 02:13:23;;;;;;;2.28;0.60;;;2.40;99.90;;;;;;5111552;27;20039;-68
2023/01/17 02:16:10;;;;;;;4.20;0.80;;;2.20;99.90;;;;;;5115483;27;20118;-66
2023/01/17 02:18:54;;;;;;;3.55;0.60;;;2.20;99.90;;;;;;5115174;27;20035;-67
2023/01/17 02:21:35;;;;;;;4.93;0.43;;;2.30;99.90;;;;;;5115885;28;20039;-67
2023/01/17 02:24:32;;;;;;;4.00;0.70;;;2.40;99.90;;;;;;5101036;27;20089;-67
2023/01/17 02:27:20;;;;;;;2.70;0.85;;;2.50;99.90;;;;;;5095511;28;20040;-66
2023/01/17 02:30:04;;;;;;;2.53;0.38;;;2.50;99.90;;;;;;5099251;27;20043;-66
2023/01/17 02:32:56;;;;;;;5.28;0.70;;;2.50;99.90;;;;;;5112776;27;20047;-66
2023/01/17 02:35:28;;;;;;;3.28;0.77;;;2.50;99.90;;;;;;5096859;28;20051;-67
2023/01/17 02:38:23;;;;;;;1.75;0.25;;;2.60;99.90;;;;;;5133426;27;20038;-65
2023/01/17 02:40:54;;;;;;;5.93;0.70;;;2.50;99.90;;;;;;5100847;27;20058;-66
2023/01/17 02:43:22;;;;;;;4.80;0.52;;;2.70;99.90;;;;;;5108896;28;20054;-67
2023/01/17 02:45:47;;;;;;;5.55;1.02;;;2.70;99.90;;;;;;5095347;27;20515;-68
2023/01/17 02:48:17;;;;;;;5.97;0.60;;;2.80;99.90;;;;;;5109005;27;20035;-68
2023/01/17 02:50:55;;;;;;;2.40;0.57;;;2.80;99.90;;;;;;5109904;27;20096;-69
2023/01/17 02:53:28;;;;;;;5.47;0.60;;;3.00;99.90;;;;;;5106285;27;20451;-67
2023/01/17 02:56:09;;;;;;;;;;;2.90;99.90;;;;;;5130914;27;20109;-66
2023/01/17 02:58:44;;;;;;;8.65;1.10;;;2.80;99.90;;;;;;5130041;27;19915;-68
2023/01/17 03:01:33;;;;;;;5.60;0.73;;;2.70;99.90;;;;;;5129285;27;20089;-66
2023/01/17 03:04:11;;;;;;;4.15;0.80;;;2.50;99.90;;;;;;5109069;27;20076;-66
2023/01/17 03:07:03;;;;;;;4.47;0.68;;;2.50;99.90;;;;;;5081632;28;20039;-69
2023/01/17 03:09:30;;;;;;;6.13;1.13;;;2.60;99.90;;;;;;5103434;28;20399;-65
2023/01/17 03:11:57;;;;;;;6.47;1.20;;;2.50;99.90;;;;;;5112556;28;20107;-67
2023/01/17 03:14:22;;;;;;;9.20;0.85;;;2.60;99.90;;;;;;5109123;28;20042;-65
2023/01/17 03:16:49;;;;;;;4.32;0.57;;;2.60;99.90;;;;;;5110442;28;20467;-67
2023/01/17 03:19:15;;;;;;;2.22;0.40;;;2.70;99.90;;;;;;5107451;28;20063;-66
2023/01/17 03:21:40;;;;;;;2.38;0.40;;;2.50;99.90;;;;;;5105860;28;20067;-65
2023/01/17 03:24:08;;;;;;;4.55;0.60;;;2.60;99.90;;;;;;5108528;28;20035;-67
2023/01/17 03:26:34;;;;;;;8.63;0.73;;;2.60;99.90;;;;;;5113642;28;20035;-66
2023/01/17 03:28:59;;;;;;;4.28;1.70;;;2.60;99.90;;;;;;5114615;28;20051;-68
2023/01/17 03:31:25;;;;;;;3.20;0.50;;;2.60;99.90;;;;;;5113915;28;20093;-66
2023/01/17 03:33:50;;;;;;;8.77;0.75;;;2.50;99.90;;;;;;5113018;27;20038;-66
2023/01/17 03:36:17;;;;;;;11.10;1.35;;;2.40;99.90;;;;;;5118936;27;20535;-66
2023/01/17 03:38:43;;;;;;;8.88;0.70;;;2.40;99.90;;;;;;5106274;27;20051;-68
2023/01/17 03:41:34;;;;;;;4.22;0.70;;;2.40;99.90;;;;;;5116904;27;20035;-68
2023/01/17 03:44:00;;;;;;;8.85;1.00;;;2.30;99.90;;;;;;5117014;27;20031;-67
2023/01/17 03:46:27;;;;;;;10.02;0.90;;;2.20;99.90;;;;;;5111769;27;20378;-67
2023/01/17 03:48:56;;;;;;;5.43;0.73;;;2.20;99.90;;;;;;5116849;27;20489;-67
2023/01/17 03:51:21;;;;;;;11.52;1.00;;;2.00;99.90;;;;;;5113404;27;20469;-67
2023/01/17 03:53:48;;;;;;;7.97;1.20;;;2.00;99.90;;;;;;5114281;27;20080;-67
2023/01/17 03:56:15;;;;;;;5.30;1.23;;;2.00;99.90;;;;;;5129313;27;20122;-67
2023/01/17 03:58:41;;;;;;;8.60;1.00;;;2.00;99.90;;;;;;5111907;27;20031;-67
2023/01/17 04:01:07;;;;;;;6.30;1.17;;;1.90;99.90;;;;;;5107949;27;20080;-66
2023/01/17 04:03:33;;;;;;;8.50;0.90;;;2.00;99.90;;;;;;5109366;27;20122;-67
2023/01/17 04:05:58;;;;;;;8.38;1.00;;;1.90;99.90;;;;;;5110809;27;20146;-67
2023/01/17 04:08:24;;;;;;;6.68;0.88;;;2.00;99.90;;;;;;5104356;27;20611;-68
2023/01/17 04:10:49;;;;;;;3.92;0.57;;;1.90;99.90;;;;;;5124389;27;20093;-67
2023/01/17 04:13:17;;;;;;;4.57;0.60;;;1.90;99.90;;;;;;5106862;27;20048;-67
2023/01/17 04:15:49;;;;;;;9.98;0.90;;;1.90;99.90;;;;;;5089819;27;20114;-67
2023/01/17 04:18:19;;;;;;;5.03;1.17;;;1.90;99.90;;;;;;5111625;27;20035;-67
2023/01/17 04:20:45;;;;;;;7.53;0.90;;;1.70;99.90;;;;;;5110779;27;20121;-66
2023/01/17 04:23:11;;;;;;;10.88;1.10;;;1.80;99.90;;;;;;5107765;27;20450;-68
2023/01/17 04:25:37;;;;;;;7.15;0.77;;;1.80;99.90;;;;;;5108097;27;20035;-66
2023/01/17 04:28:03;;;;;;;6.70;0.90;;;1.70;99.90;;;;;;5106229;27;20063;-67
2023/01/17 04:30:29;;;;;;;7.03;1.05;;;1.60;99.90;;;;;;5112156;27;20133;-67
2023/01/17 04:32:56;;;;;;;7.93;0.80;;;1.50;99.90;;;;;;5107720;27;20043;-67
2023/01/17 04:35:22;;;;;;;6.45;0.75;;;1.60;99.90;;;;;;5111509;27;20114;-67
2023/01/17 04:37:48;;;;;;;5.35;1.30;;;1.60;99.90;;;;;;5109556;27;20031;-67
2023/01/17 04:40:13;;;;;;;5.32;0.77;;;1.50;99.90;;;;;;5106829;27;20545;-67
2023/01/17 04:42:39;;;;;;;4.93;0.68;;;1.60;99.90;;;;;;5105152;27;20041;-68
2023/01/17 04:45:06;;;;;;;9.10;0.80;;;1.50;99.90;;;;;;5107702;27;20031;-67
2023/01/17 04:47:34;;;;;;;7.47;0.90;;;1.50;99.90;;;;;;5107623;27;20092;-67
2023/01/17 04:50:00;;;;;;;4.93;0.70;;;1.40;99.90;;;;;;5127483;27;20031;-67
2023/01/17 04:52:26;;;;;;;7.80;0.98;;;1.40;99.90;;;;;;5111553;27;20035;-67
2023/01/17 04:54:51;;;;;;;11.35;1.00;;;1.20;99.90;;;;;;5108230;27;20039;-66
2023/01/17 04:57:18;;;;;;;12.73;1.13;;;1.40;99.90;;;;;;5108277;27;20150;-68
2023/01/17 04:59:44;;;;;;;11.35;1.27;;;1.30;99.90;;;;;;5091079;27;20126;-67
2023/01/17 05:02:10;;;;;;;10.32;1.60;;;1.30;99.90;;;;;;5101377;27;20047;-67
2023/01/17 05:04:35;;;;;;;8.10;1.00;;;1.20;99.90;;;;;;5107001;27;20039;-67
2023/01/17 05:07:02;;;;;;;8.88;0.90;;;1.20;99.90;;;;;;5101247;27;20038;-67
2023/01/17 05:09:27;;;;;;;8.23;1.00;;;1.10;99.90;;;;;;5109059;27;20031;-66
2023/01/17 05:11:54;;;;;;;6.07;0.77;;;1.20;99.90;;;;;;5106639;27;20107;-67
2023/01/17 05:14:20;;;;;;;16.67;1.45;;;1.30;99.90;;;;;;5104882;27;20043;-68
2023/01/17 05:16:46;;;;;;;10.45;1.67;;;1.20;99.90;;;;;;5109019;27;20480;-67
2023/01/17 05:19:12;;;;;;;13.75;1.08;;;1.10;99.90;;;;;;5107884;27;20333;-67
2023/01/17 05:21:39;;;;;;;5.85;0.77;;;1.20;99.90;;;;;;5107833;27;20043;-67
2023/01/17 05:24:05;;;;;;;7.43;0.73;;;1.00;99.90;;;;;;5103708;27;20039;-67
2023/01/17 05:26:30;;;;;;;6.57;0.90;;;1.00;99.90;;;;;;5101673;27;20378;-67
2023/01/17 05:28:56;;;;;;;8.43;0.90;;;1.00;99.90;;;;;;5102787;27;20443;-67
2023/01/17 05:31:21;;;;;;;15.45;1.02;;;1.00;99.90;;;;;;5104108;27;20118;-68
2023/01/17 05:33:47;;;;;;;5.13;0.80;;;0.90;99.90;;;;;;5096052;27;20046;-68
2023/01/17 05:36:13;;;;;;;15.95;1.00;;;1.00;99.90;;;;;;5118789;27;20384;-68
2023/01/17 05:38:38;;;;;;;8.95;1.10;;;0.90;99.90;;;;;;5102106;27;20076;-68
2023/01/17 05:41:04;;;;;;;12.35;1.23;;;1.00;99.90;;;;;;5099229;27;20071;-68
2023/01/17 05:43:30;;;;;;;11.20;1.15;;;0.90;99.90;;;;;;5113937;27;20043;-68
2023/01/17 05:45:55;;;;;;;8.15;0.80;;;1.00;99.90;;;;;;5101915;27;20035;-68
2023/01/17 05:48:21;;;;;;;7.53;1.00;;;0.80;99.90;;;;;;5097503;27;20378;-66
2023/01/17 05:50:47;;;;;;;3.35;0.63;;;0.90;99.90;;;;;;5106260;27;20039;-67
2023/01/17 05:53:15;;;;;;;5.18;0.82;;;1.00;99.90;;;;;;5108781;27;20076;-69
2023/01/17 05:55:46;;;;;;;7.43;0.90;;;1.50;99.90;;;;;;5106722;27;20147;-65
2023/01/17 05:58:17;;;;;;;3.70;0.40;;;1.70;99.90;;;;;;5103010;27;20118;-68
2023/01/17 06:00:44;;;;;;;3.25;0.60;;;1.70;99.90;;;;;;5089194;27;20031;-68
2023/01/17 06:03:10;;;;;;;4.32;0.65;;;1.70;99.90;;;;;;5101885;27;20035;-69
2023/01/17 06:05:36;;;;;;;7.68;0.63;;;1.60;99.90;;;;;;5104938;27;20051;-69
2023/01/17 06:08:01;;;;;;;4.40;0.68;;;1.60;99.90;;;;;;5102283;27;20038;-68
2023/01/17 06:10:28;;;;;;;6.70;0.57;;;1.50;99.90;;;;;;5105045;27;20027;-70
2023/01/17 06:13:00;;;;;;;7.65;1.00;;;1.40;99.90;;;;;;5107351;27;20039;-71
2023/01/17 06:15:26;;;;;;;5.75;0.80;;;1.30;99.90;;;;;;5106326;27;20071;-71
2023/01/17 06:17:52;;;;;;;8.25;0.70;;;1.20;99.90;;;;;;5102887;27;20107;-70
2023/01/17 06:20:17;;;;;;;4.55;0.63;;;1.10;99.90;;;;;;5085252;27;20405;-73
2023/01/17 06:22:43;;;;;;;6.88;0.70;;;1.10;99.90;;;;;;5099525;27;20035;-73
2023/01/17 06:25:09;;;;;;;7.75;0.77;;;1.00;99.90;;;;;;5103213;27;20507;-73
2023/01/17 06:27:34;;;;;;;5.60;0.90;;;0.90;99.90;;;;;;5102259;27;20039;-73
2023/01/17 06:30:00;;;;;;;4.25;0.43;;;0.90;99.90;;;;;;5101143;27;20035;-74
2023/01/17 06:32:25;;;;;;;4.70;0.93;;;0.80;99.90;;;;;;5104780;27;20665;-74
2023/01/17 06:34:51;;;;;;;5.90;0.50;;;0.70;99.90;;;;;;5106462;27;20482;-74
2023/01/17 06:37:16;;;;;;;5.95;0.70;;;0.60;99.90;;;;;;5091959;27;20035;-74
2023/01/17 06:39:42;;;;;;;11.05;1.08;;;0.60;99.90;;;;;;5110974;27;20114;-74
2023/01/17 06:42:08;;;;;;;9.30;0.70;;;0.70;99.90;;;;;;5100069;27;20045;-74
2023/01/17 06:44:33;;;;;;;5.35;0.70;;;0.60;99.90;;;;;;5121807;27;20374;-73
2023/01/17 06:46:59;;;;;;;8.90;1.48;;;0.60;99.90;;;;;;5084629;27;20148;-72
2023/01/17 06:49:25;;;;;;;2.80;0.60;;;0.50;99.90;;;;;;5098459;27;20828;-73
2023/01/17 06:51:50;;;;;;;4.88;0.75;;;0.70;99.90;;;;;;5097358;27;20118;-72
2023/01/17 06:54:17;;;;;;;5.07;0.60;;;0.70;99.90;;;;;;5100018;27;20050;-72
2023/01/17 06:56:43;;;;;;;7.55;0.93;;;0.70;99.90;;;;;;5101462;27;20088;-73
2023/01/17 06:59:08;;;;;;;11.02;1.00;;;0.80;99.90;;;;;;5100312;27;20481;-72
2023/01/17 07:01:34;;;;;;;10.13;1.33;;;0.80;99.90;;;;;;5097701;27;20023;-72
2023/01/17 07:04:00;;;;;;;7.75;0.88;;;0.90;99.90;;;;;;5101222;28;20110;-72
2023/01/17 07:06:27;;;;;;;7.40;1.48;;;0.80;99.90;;;;;;5095725;28;20032;-72
2023/01/17 07:08:55;;;;;;;5.82;0.95;;;0.80;99.90;;;;;;5100244;27;20430;-73
2023/01/17 07:11:21;;;;;;;4.88;0.70;;;1.00;99.90;;;;;;5103209;27;20050;-72
2023/01/17 07:13:46;;;;;;;8.02;0.85;;;0.90;99.90;;;;;;5118809;28;20983;-72
2023/01/17 07:16:12;;;;;;;7.82;1.00;;;0.90;99.90;;;;;;5105379;27;20359;-73
2023/01/17 07:18:37;;;;;;;4.72;0.73;;;0.90;99.90;;;;;;5109158;28;20038;-72
2023/01/17 07:21:03;;;;;;;8.55;0.85;;;0.90;99.90;;;;;;5107987;28;20470;-72
2023/01/17 07:23:29;;;;;;;7.68;1.33;;;0.90;99.90;;;;;;5107410;28;20473;-72
2023/01/17 07:25:59;;;;;;;8.23;1.35;;;0.90;99.90;;;;;;5101651;27;20439;-72
2023/01/17 07:28:26;;;;;;;8.70;1.40;;;1.00;99.90;;;;;;5104933;28;20050;-72
2023/01/17 07:30:52;;;;;;;7.05;1.25;;;1.00;99.90;;;;;;5108296;27;20493;-75
2023/01/17 07:33:19;;;;;;;13.30;1.98;;;1.20;99.90;;;;;;5110487;28;20088;-72
2023/01/17 07:35:45;;;;;;;4.82;1.20;;;1.30;99.90;;;;;;5108931;27;20042;-72
2023/01/17 07:38:18;;;;;;;5.18;1.10;;;1.20;99.90;;;;;;5104445;28;20453;-75
2023/01/17 07:40:45;;;;;;;7.15;1.27;;;1.20;99.90;;;;;;5096510;27;20482;-74
2023/01/17 07:43:14;;;;;;;9.55;1.10;;;1.30;99.90;;;;;;5101412;28;20053;-75
2023/01/17 07:45:50;;;;;;;10.52;1.25;;;1.10;99.90;;;;;;5102304;28;20397;-74
2023/01/17 07:48:17;;;;;;;6.30;1.10;;;1.20;99.90;;;;;;5104103;28;20035;-73
2023/01/17 07:50:43;;;;;;;11.23;1.42;;;1.20;99.90;;;;;;5100777;28;20047;-72
2023/01/17 07:53:09;;;;;;;6.13;1.20;;;1.10;99.90;;;;;;5111533;28;20039;-74
2023/01/17 07:55:35;;;;;;;5.97;1.23;;;1.30;99.90;;;;;;5089413;28;20038;-72
2023/01/17 07:58:00;;;;;;;6.05;1.40;;;1.10;99.90;;;;;;5086274;28;20028;-74
2023/01/17 08:00:26;;;;;;;7.78;1.27;;;1.10;99.90;;;;;;5120589;27;20385;-75
2023/01/17 08:03:00;;;;;;;10.50;1.35;;;1.10;99.90;;;;;;5103930;28;20091;-73
2023/01/17 08:05:26;;;;;;;5.68;1.20;;;0.90;99.90;;;;;;5101257;28;20054;-73
2023/01/17 08:07:52;;;;;;;10.05;1.20;;;1.00;99.90;;;;;;5097583;28;20047;-73
2023/01/17 08:10:18;;;;;;;5.47;1.10;;;1.10;99.90;;;;;;5100938;28;20549;-71
2023/01/17 08:12:45;;;;;;;4.30;1.20;;;1.10;99.90;;;;;;5102831;28;20059;-72
2023/01/17 08:15:11;;;;;;;11.02;1.40;;;1.00;99.90;;;;;;5103651;28;20443;-73
2023/01/17 08:17:37;;;;;;;7.97;1.65;;;0.90;99.90;;;;;;5097630;27;20039;-76
2023/01/17 08:20:05;;;;;;;6.82;2.05;;;0.80;99.90;;;;;;5102616;27;20523;-73
2023/01/17 08:22:30;;;;;;;5.53;1.60;;;1.00;99.90;;;;;;5102649;27;20103;-75
2023/01/17 08:24:56;;;;;;;8.63;1.83;;;0.90;99.90;;;;;;5106116;27;20039;-71
2023/01/17 08:27:22;;;;;;;7.43;2.22;;;1.00;99.90;;;;;;5102166;27;20102;-74
2023/01/17 08:29:48;;;;;;;17.00;2.88;;;0.90;99.90;;;;;;5109200;27;20035;-72
2023/01/17 08:32:14;;;;;;;7.80;2.40;;;1.00;99.90;;;;;;5105660;27;20043;-74
2023/01/17 08:34:40;;;;;;;8.95;2.15;;;0.90;99.90;;;;;;5101794;27;20426;-74
2023/01/17 08:37:06;;;;;;;12.55;2.50;;;0.90;99.90;;;;;;5111059;27;20039;-74
2023/01/17 08:39:31;;;;;;;7.25;2.45;;;0.80;99.90;;;;;;5114995;27;20506;-74
2023/01/17 08:41:57;;;;;;;8.48;2.83;;;0.90;99.90;;;;;;5110881;27;20046;-74
2023/01/17 08:44:23;;;;;;;8.25;2.85;;;0.90;99.90;;;;;;5115920;27;20066;-74
2023/01/17 08:46:48;;;;;;;12.05;3.05;;;1.10;99.90;;;;;;5109909;27;20482;-74
2023/01/17 08:49:14;;;;;;;8.45;2.83;;;1.10;99.90;;;;;;5105700;27;20047;-75
2023/01/17 08:51:40;;;;;;;11.52;3.30;;;1.10;99.90;;;;;;5125008;27;20035;-73
2023/01/17 08:54:08;;;;;;;12.15;2.80;;;1.10;99.90;;;;;;5112601;27;20493;-74
2023/01/17 08:56:34;;;;;;;9.23;3.03;;;0.90;99.90;;;;;;5099593;27;20131;-74
2023/01/17 08:59:01;;;;;;;7.20;2.75;;;1.00;99.90;;;;;;5122564;27;20059;-74
2023/01/17 09:01:27;;;;;;;12.93;3.00;;;1.00;99.90;;;;;;5110108;27;20430;-75
2023/01/17 09:03:52;;;;;;;9.55;2.60;;;1.10;99.90;;;;;;5113819;27;20046;-75
2023/01/17 09:06:18;;;;;;;7.70;2.35;;;1.10;99.90;;;;;;5106799;27;20051;-75
2023/01/17 09:08:48;;;;;;;10.10;2.53;;;1.10;99.90;;;;;;5099175;27;20489;-73
2023/01/17 09:11:16;;;;;;;9.50;2.50;;;1.20;99.90;;;;;;5109494;27;20046;-71
2023/01/17 09:13:43;;;;;;;7.75;2.38;;;1.30;99.90;;;;;;5108407;27;20082;-74
2023/01/17 09:16:09;;;;;;;12.00;2.63;;;1.10;99.90;;;;;;5095642;28;20054;-74
2023/01/17 09:18:35;;;;;;;12.93;2.55;;;1.10;99.90;;;;;;5096911;27;20036;-73
2023/01/17 09:21:30;;;;;;;8.38;2.33;;;1.30;99.90;;;;;;5116294;27;20042;-74
2023/01/17 09:23:56;;;;;;;11.77;2.70;;;1.30;99.90;;;;;;5095267;27;20047;-74
2023/01/17 09:26:27;;;;;;;9.38;2.58;;;1.20;99.90;;;;;;5114805;27;20401;-73
2023/01/17 09:28:54;;;;;;;3.92;2.08;;;1.30;99.90;;;;;;5112350;27;20432;-73
2023/01/17 09:31:21;;;;;;;8.52;2.72;;;1.30;99.90;;;;;;5115507;27;20493;-74
2023/01/17 09:33:48;;;;;;;9.40;2.50;;;1.60;99.90;;;;;;5109110;27;20375;-73
2023/01/17 09:36:14;;;;;;;9.40;3.03;;;1.60;99.90;;;;;;5108195;28;20405;-73
2023/01/17 09:38:40;;;;;;;13.07;2.58;;;1.70;99.90;;;;;;5112277;27;20371;-74
2023/01/17 09:41:31;;;;;;;9.15;2.70;;;1.70;99.90;;;;;;5093360;28;20028;-73
2023/01/17 09:44:25;;;;;;;8.25;2.58;;;1.70;99.90;;;;;;5110488;27;20126;-73
2023/01/17 09:47:32;;;;;;;8.95;2.80;;;1.80;99.90;;;;;;5087700;27;20493;-74
2023/01/17 09:50:30;;;;;;;11.95;2.53;;;1.80;99.90;;;;;;5093279;28;20044;-74
2023/01/17 09:53:21;;;;;;;9.52;2.35;;;1.90;99.90;;;;;;5095134;27;20042;-74
2023/01/17 09:55:59;;;;;;;14.73;2.95;;;2.00;99.90;;;;;;5116181;27;20112;-74
2023/01/17 09:58:33;;;;;;;7.38;2.47;;;1.90;99.90;;;;;;5104922;27;20035;-75
2023/01/17 10:01:11;;;;;;;10.07;2.65;;;2.00;99.90;;;;;;5113931;27;20047;-77
2023/01/17 10:03:55;;;;;;;10.43;2.85;;;2.10;99.90;;;;;;5109095;27;20047;-76
2023/01/17 10:06:39;;;;;;;6.10;2.97;;;2.00;99.90;;;;;;5113882;27;20134;-76
2023/01/17 10:09:11;;;;;;;12.50;2.70;;;2.10;99.90;;;;;;5111203;27;20504;-73
2023/01/17 10:11:53;;;;;;;11.70;3.00;;;2.30;99.90;;;;;;5112630;27;20586;-74
2023/01/17 10:14:18;;;;;;;16.67;2.88;;;2.20;99.90;;;;;;5102479;28;20070;-75
2023/01/17 10:16:52;;;;;;;14.70;2.92;;;2.30;99.90;;;;;;5110796;27;20039;-73
2023/01/17 10:19:33;;;;;;;13.30;2.95;;;2.40;99.90;;;;;;5111080;27;20071;-75
2023/01/17 10:22:45;;;;;;;9.40;2.72;;;2.50;99.90;;;;;;5098731;27;20047;-73
2023/01/17 10:25:38;;;;;;;12.32;2.95;;;2.50;99.90;;;;;;5027235;28;20103;-74
2023/01/17 10:28:09;;;;;;;;;;;2.50;99.90;;;;;;5026831;28;20037;-75
2023/01/17 10:30:43;;;;;;;10.13;2.92;;;2.70;99.90;;;;;;5088650;27;19992;-74
2023/01/17 10:33:58;;;;;;;8.80;3.08;;;2.70;99.90;;;;;;5097491;27;20031;-74
2023/01/17 10:36:36;;;;;;;11.40;3.25;;;2.80;99.90;;;;;;5112785;27;20046;-73
2023/01/17 10:39:18;;;;;;;13.00;2.90;;;2.70;99.90;;;;;;5097466;27;20043;-74
2023/01/17 10:41:53;;;;;;;12.63;3.40;;;2.90;99.90;;;;;;5099093;27;20067;-76
2023/01/17 10:44:22;;;;;;;8.73;2.65;;;2.80;99.90;;;;;;5120729;27;20051;-76
2023/01/17 10:47:09;;;;;;;11.45;3.25;;;2.80;99.90;;;;;;5109911;27;20046;-76
2023/01/17 10:49:39;;;;;;;7.78;2.60;;;3.00;99.90;;;;;;5110323;27;20038;-76
2023/01/17 10:52:29;;;;;;;10.77;2.78;;;2.90;99.90;;;;;;5090373;27;20070;-75
2023/01/17 10:55:15;;;;;;;8.18;3.20;;;3.00;99.90;;;;;;5108316;27;20133;-75
2023/01/17 10:57:47;;;;;;;13.93;2.90;;;3.00;99.90;;;;;;5106124;27;20047;-75
2023/01/17 11:00:16;;;;;;;11.70;2.70;;;3.00;99.90;;;;;;5103160;27;20043;-75
2023/01/17 11:02:49;;;;;;;7.53;2.58;;;3.20;99.90;;;;;;5103270;27;20031;-76
2023/01/17 11:05:20;;;;;;;;;;;3.20;99.90;;;;;;5098528;28;20573;-78
2023/01/17 11:07:56;;;;;;;9.70;2.83;;;3.30;99.90;;;;;;5099486;28;19962;-78
2023/01/17 11:10:38;;;;;;;8.18;3.08;;;3.20;99.90;;;;;;5095648;28;20043;-75
2023/01/17 11:13:26;;;;;;;8.50;2.83;;;3.30;99.90;;;;;;5100925;27;20051;-74
2023/01/17 11:15:58;;;;;;;9.10;3.00;;;3.40;99.90;;;;;;5091029;28;20086;-76
2023/01/17 11:18:36;;;;;;;11.13;3.05;;;3.40;99.90;;;;;;5105877;27;20042;-75
2023/01/17 11:21:15;;;;;;;20.63;3.50;;;3.40;99.90;;;;;;5102536;28;20039;-72
2023/01/17 11:23:44;;;;;;;7.40;2.85;;;3.40;99.90;;;;;;5101138;27;20055;-75
2023/01/17 11:26:31;;;;;;;11.13;2.90;;;3.40;99.90;;;;;;5103995;28;20035;-77
2023/01/17 11:29:28;;;;;;;9.13;3.30;;;3.40;99.90;;;;;;5102283;28;20043;-78
2023/01/17 11:31:55;;;;;;;9.07;2.83;;;3.40;99.90;;;;;;5100041;28;20047;-74
2023/01/17 11:34:30;;;;;;;10.00;2.88;;;3.40;99.90;;;;;;5100092;28;20078;-74
2023/01/17 11:37:19;;;;;;;11.75;3.08;;;3.50;99.90;;;;;;5104282;28;20362;-73
2023/01/17 11:39:47;;;;;;;11.57;3.17;;;3.50;99.90;;;;;;5096462;28;20043;-74
2023/01/17 11:42:35;;;;;;;8.05;3.40;;;3.50;99.90;;;;;;5101878;28;20035;-76
2023/01/17 11:45:22;;;;;;;9.63;3.22;;;3.50;99.90;;;;;;5097327;28;20566;-72
2023/01/17 11:47:48;;;;;;;10.90;3.58;;;3.50;99.90;;;;;;5104009;28;20035;-76
2023/01/17 11:50:26;;;;;;;10.25;3.22;;;3.60;99.90;;;;;;5101316;28;20049;-75
2023/01/17 11:52:53;;;;;;;10.93;3.30;;;3.50;99.90;;;;;;5100001;27;20084;-77
2023/01/17 11:55:21;;;;;;;13.55;3.28;;;3.60;99.90;;;;;;5101465;27;20829;-72
2023/01/17 11:57:49;;;;;;;8.75;2.95;;;3.60;99.90;;;;;;5110300;27;20099;-75
2023/01/17 12:00:18;;;;;;;10.77;3.67;;;3.70;99.90;;;;;;5106186;27;20031;-74
2023/01/17 12:02:54;;;;;;;13.35;4.40;;;3.70;99.90;;;;;;5103230;27;20039;-77
2023/01/17 12:05:26;;;;;;;11.68;4.05;;;3.80;99.90;;;;;;5104602;27;20042;-74
2023/01/17 12:08:03;;;;;;;11.93;4.17;;;3.80;99.90;;;;;;5105632;27;20047;-77
2023/01/17 12:10:53;;;;;;;11.32;3.50;;;3.80;99.90;;;;;;5101330;27;20485;-76
2023/01/17 12:14:01;;;;;;;13.75;4.63;;;3.80;99.90;;;;;;5103370;27;20054;-76
2023/01/17 12:16:49;;;;;;;14.13;4.75;;;3.90;99.90;;;;;;5103490;27;20035;-74
2023/01/17 12:19:41;;;;;;;11.90;3.45;;;3.90;99.90;;;;;;5100927;27;20485;-76
2023/01/17 12:22:12;;;;;;;12.88;3.63;;;3.90;99.90;;;;;;5103341;27;20099;-74
2023/01/17 12:25:00;;;;;;;8.93;3.72;;;4.00;99.90;;;;;;5109081;27;20075;-73
2023/01/17 12:27:55;;;;;;;13.30;3.72;;;4.00;99.90;;;;;;5105567;27;20419;-71
2023/01/17 12:30:51;;;;;;;10.48;3.70;;;4.00;99.90;;;;;;5101522;27;20118;-76
2023/01/17 12:33:44;;;;;;;7.72;3.22;;;4.00;99.90;;;;;;5109492;27;20077;-76
2023/01/17 12:36:33;;;;;;;8.65;2.80;;;4.10;99.90;;;;;;5109576;27;20039;-71
2023/01/17 12:39:05;;;;;;;8.50;2.92;;;4.10;99.90;;;;;;5112889;27;20031;-76
2023/01/17 12:41:37;;;;;;;10.57;3.17;;;4.10;99.90;;;;;;5116758;27;20394;-77
2023/01/17 12:44:03;;;;;;;10.27;3.15;;;4.10;99.90;;;;;;5109375;27;20138;-73
2023/01/17 12:46:48;;;;;;;7.85;2.92;;;4.10;99.90;;;;;;5110107;27;20118;-75
2023/01/17 12:49:40;;;;;;;5.50;2.67;;;4.10;99.90;;;;;;5109172;27;20039;-76
2023/01/17 12:52:46;;;;;;;9.82;2.72;;;4.20;99.90;;;;;;5109711;27;20365;-75
2023/01/17 12:55:19;;;;;;;6.82;2.33;;;4.30;99.90;;;;;;5125213;27;20048;-72
2023/01/17 12:57:52;;;;;;;8.80;2.38;;;4.30;99.90;;;;;;5107838;27;20034;-72
2023/01/17 13:00:24;;;;;;;7.00;2.22;;;4.30;99.90;;;;;;5092543;27;20043;-71
2023/01/17 13:03:02;;;;;;;8.05;2.30;;;4.30;99.90;;;;;;5114625;27;20043;-75
2023/01/17 13:05:41;;;;;;;8.40;2.50;;;4.30;99.90;;;;;;5107955;27;20119;-76
2023/01/17 13:08:33;;;;;;;9.48;2.30;;;4.40;99.90;;;;;;5103326;27;20035;-74
2023/01/17 13:11:06;;;;;;;9.65;2.33;;;4.40;99.90;;;;;;5113546;27;20504;-73
2023/01/17 13:13:34;;;;;;;5.85;2.20;;;4.40;99.90;;;;;;5111716;27;20066;-72
2023/01/17 13:16:06;;;;;;;6.63;2.40;;;4.40;99.90;;;;;;5110491;27;20027;-70
2023/01/17 13:18:35;;;;;;;7.28;2.35;;;4.40;99.90;;;;;;5111154;27;20568;-75
2023/01/17 13:21:12;;;;;;;9.98;2.40;;;4.40;99.90;;;;;;5110730;27;20034;-76
2023/01/17 13:23:44;;;;;;;7.38;3.10;;;4.40;99.90;;;;;;5111122;27;20434;-75
2023/01/17 13:26:18;;;;;;;10.70;2.47;;;4.40;99.90;;;;;;5112611;27;20552;-73
2023/01/17 13:29:12;;;;;;;7.30;2.20;;;4.40;99.90;;;;;;5111101;27;20296;-75
2023/01/17 13:31:49;;;;;;;6.82;2.40;;;4.40;99.90;;;;;;5083418;27;20039;-76
2023/01/17 13:34:21;;;;;;;8.50;2.10;;;4.30;99.90;;;;;;5108828;27;20044;-73
2023/01/17 13:36:57;;;;;;;6.95;2.40;;;4.30;99.90;;;;;;5113455;27;20104;-78
2023/01/17 13:39:47;;;;;;;9.52;1.92;;;4.30;99.90;;;;;;5109531;27;20041;-77
2023/01/17 13:42:49;;;;;;;7.30;2.25;;;4.10;99.90;;;;;;5107780;27;20057;-76
2023/01/17 13:45:21;;;;;;;8.02;2.33;;;4.00;99.90;;;;;;5127660;27;20027;-75
2023/01/17 13:47:46;;;;;;;7.40;2.47;;;3.90;99.90;;;;;;5112210;27;20042;-72
2023/01/17 13:50:37;;;;;;;7.88;2.30;;;3.80;99.90;;;;;;5107089;27;20031;-74
2023/01/17 13:53:27;;;;;;;5.07;2.22;;;3.80;99.90;;;;;;5107960;27;20042;-74
2023/01/17 13:56:04;;;;;;;9.70;2.50;;;3.70;99.90;;;;;;5106368;27;20071;-73
2023/01/17 13:58:55;;;;;;;4.20;1.73;;;3.70;99.90;;;;;;5088099;27;20436;-75
2023/01/17 14:01:21;;;;;;;4.55;2.17;;;3.70;99.90;;;;;;5110265;27;20561;-72
2023/01/17 14:03:49;;;;;;;11.48;2.42;;;3.70;99.90;;;;;;5098887;27;20130;-69
2023/01/17 14:06:34;;;;;;;8.05;2.05;;;3.70;99.90;;;;;;5106016;27;20038;-74
2023/01/17 14:09:11;;;;;;;11.15;2.00;;;3.80;99.90;;;;;;5112436;27;20099;-75
2023/01/17 14:11:57;;;;;;;4.57;1.90;;;3.70;99.90;;;;;;5103886;27;20039;-74
2023/01/17 14:14:41;;;;;;;5.72;2.40;;;3.70;99.90;;;;;;5104043;27;21707;-77
2023/01/17 14:17:24;;;;;;;10.00;1.95;;;3.70;99.90;;;;;;5108013;27;20043;-74
2023/01/17 14:19:52;;;;;;;7.70;1.83;;;3.70;99.90;;;;;;5103092;27;20424;-75
2023/01/17 14:22:17;;;;;;;8.73;2.30;;;3.70;99.90;;;;;;5107443;27;20059;-76
2023/01/17 14:24:58;;;;;;;8.70;2.72;;;3.70;99.90;;;;;;5100800;27;20126;-71
2023/01/17 14:27:25;;;;;;;5.43;1.92;;;3.80;99.90;;;;;;5111192;27;20081;-78
2023/01/17 14:29:54;;;;;;;12.45;2.50;;;3.90;99.90;;;;;;5109743;27;20043;-75
2023/01/17 14:32:23;;;;;;;7.72;2.30;;;4.00;99.90;;;;;;5109894;27;20046;-75
2023/01/17 14:34:51;;;;;;;9.27;2.42;;;4.00;99.90;;;;;;5102533;27;20597;-74
2023/01/17 14:37:29;;;;;;;10.57;2.30;;;3.90;99.90;;;;;;5109781;27;20118;-74
2023/01/17 14:39:54;;;;;;;8.95;2.80;;;3.90;99.90;;;;;;5109281;27;20051;-71
2023/01/17 14:42:25;;;;;;;12.15;2.80;;;4.00;99.90;;;;;;5101129;27;20393;-74